createdAt,value
2017-07-01T00:00:23.778Z,68.60
2017-07-01T00:02:51.401Z,69.55
2017-07-01T00:05:18.898Z,70.40
2017-07-01T00:07:46.452Z,69.44
2017-07-01T00:10:13.967Z,68.73
2017-07-01T00:12:41.648Z,68.08
2017-07-01T00:15:09.166Z,68.63
2017-07-01T00:17:36.689Z,68.97
2017-07-01T00:20:04.255Z,69.23
2017-07-01T00:22:31.763Z,69.09
2017-07-01T00:24:59.307Z,70.03
2017-07-01T00:27:26.810Z,69.66
2017-07-01T00:29:54.351Z,69.87
2017-07-01T00:32:21.952Z,70.62
2017-07-01T00:34:49.540Z,70.55
2017-07-01T00:37:17.091Z,71.48
2017-07-01T00:39:44.591Z,71.63
2017-07-01T00:42:12.135Z,71.47
2017-07-01T00:44:39.626Z,71.75
2017-07-01T00:47:07.319Z,72.16
2017-07-01T00:49:34.827Z,72.29
2017-07-01T00:52:02.351Z,72.70
2017-07-01T00:54:29.903Z,72.75
2017-07-01T00:56:57.411Z,73.20
2017-07-01T00:59:25.231Z,73.90
2017-07-01T01:01:52.756Z,73.74
2017-07-01T01:04:20.288Z,73.73
2017-07-01T01:06:47.831Z,73.80
2017-07-01T01:09:15.367Z,74.17
2017-07-01T01:11:42.919Z,73.60
2017-07-01T01:14:10.647Z,73.86
2017-07-01T01:16:38.338Z,73.88
2017-07-01T01:19:05.845Z,74.16
2017-07-01T01:21:33.348Z,75.08
2017-07-01T01:24:00.891Z,74.87
2017-07-01T01:26:28.395Z,74.59
2017-07-01T01:28:55.907Z,74.90
2017-07-01T01:31:23.480Z,75.36
2017-07-01T01:33:51.123Z,74.80
2017-07-01T01:36:18.701Z,74.87
2017-07-01T01:38:46.467Z,75.48
2017-07-01T01:41:13.956Z,75.40
2017-07-01T01:43:41.446Z,75.40
2017-07-01T01:46:08.979Z,75.83
2017-07-01T01:48:36.483Z,75.55
2017-07-01T01:51:04.042Z,75.68
2017-07-01T01:53:31.551Z,75.74
2017-07-01T01:55:59.271Z,75.77
2017-07-01T01:58:26.763Z,76.47
2017-07-01T02:00:54.615Z,76.69
2017-07-01T02:03:22.127Z,76.63
2017-07-01T02:05:49.754Z,77.00
2017-07-01T02:08:17.368Z,76.72
2017-07-01T02:10:44.874Z,76.07
2017-07-01T02:13:12.451Z,76.04
2017-07-01T02:15:39.945Z,76.25
2017-07-01T02:18:15.246Z,76.16
2017-07-01T02:20:56.446Z,76.09
2017-07-01T02:23:23.979Z,76.20
2017-07-01T02:26:12.134Z,76.65
2017-07-01T02:28:43.647Z,76.19
2017-07-01T02:31:11.151Z,76.60
2017-07-01T02:34:00.375Z,76.26
2017-07-01T02:36:31.555Z,76.67
2017-07-01T02:38:59.050Z,76.74
2017-07-01T02:41:26.637Z,76.69
2017-07-01T02:43:54.140Z,76.78
2017-07-01T02:46:26.290Z,77.05
2017-07-01T02:48:58.459Z,77.02
2017-07-01T02:51:36.808Z,77.76
2017-07-01T02:54:04.302Z,78.06
2017-07-01T02:56:32.561Z,78.46
2017-07-01T02:59:14.926Z,78.01
2017-07-01T03:01:43.314Z,78.45
2017-07-01T03:04:10.867Z,79.35
2017-07-01T03:06:38.520Z,79.83
2017-07-01T03:09:06.015Z,79.57
2017-07-01T03:11:33.524Z,79.57
2017-07-01T03:14:01.060Z,80.82
2017-07-01T03:16:28.562Z,80.88
2017-07-01T03:18:56.092Z,80.29
2017-07-01T03:21:23.593Z,80.41
2017-07-01T03:23:51.128Z,80.61
2017-07-01T03:26:18.637Z,80.85
2017-07-01T03:28:46.199Z,81.28
2017-07-01T03:31:13.695Z,81.54
2017-07-01T03:33:54.675Z,82.00
2017-07-01T03:36:32.738Z,82.25
2017-07-01T03:39:11.890Z,82.20
2017-07-01T03:41:59.784Z,82.25
2017-07-01T03:44:49.551Z,82.58
2017-07-01T03:47:37.414Z,82.40
2017-07-01T03:50:19.915Z,83.29
2017-07-01T03:52:47.458Z,82.56
2017-07-01T03:55:15.115Z,82.11
2017-07-01T03:57:47.160Z,83.10
2017-07-01T04:00:14.831Z,83.90
2017-07-01T04:02:42.343Z,83.46
2017-07-01T04:05:09.839Z,83.17
2017-07-01T04:07:37.382Z,83.21
2017-07-01T04:10:04.884Z,83.56
2017-07-01T04:12:32.440Z,83.26
2017-07-01T04:14:59.948Z,83.91
2017-07-01T04:17:27.514Z,84.84
2017-07-01T04:19:58.568Z,84.93
2017-07-01T04:22:26.440Z,84.60
2017-07-01T04:24:53.948Z,84.07
2017-07-01T04:27:22.202Z,83.39
2017-07-01T04:29:49.762Z,84.05
2017-07-01T04:32:17.315Z,84.37
2017-07-01T04:34:44.975Z,84.56
2017-07-01T04:37:12.494Z,83.57
2017-07-01T04:39:40.019Z,82.94
2017-07-01T04:42:22.435Z,82.67
2017-07-01T04:45:04.355Z,83.33
2017-07-01T04:47:31.917Z,83.71
2017-07-01T04:49:59.422Z,84.21
2017-07-01T04:52:30.362Z,83.23
2017-07-01T04:54:58.645Z,83.80
2017-07-01T04:57:32.458Z,82.91
2017-07-01T05:00:04.566Z,83.17
2017-07-01T05:02:32.094Z,83.40
2017-07-01T05:04:59.595Z,83.19
2017-07-01T05:07:50.595Z,83.85
2017-07-01T05:10:52.377Z,83.89
2017-07-01T05:13:19.915Z,84.43
2017-07-01T05:16:01.583Z,84.87
2017-07-01T05:18:29.132Z,84.79
2017-07-01T05:20:57.438Z,84.59
2017-07-01T05:23:41.548Z,85.15
2017-07-01T05:26:09.069Z,85.46
2017-07-01T05:28:39.402Z,85.64
2017-07-01T05:31:23.845Z,84.82
2017-07-01T05:34:01.453Z,85.01
2017-07-01T05:36:29.863Z,85.66
2017-07-01T05:39:00.798Z,85.69
2017-07-01T05:41:30.167Z,84.81
2017-07-01T05:43:58.431Z,86.31
2017-07-01T05:46:28.755Z,86.48
2017-07-01T05:49:10.431Z,87.16
2017-07-01T05:51:45.600Z,87.04
2017-07-01T05:54:34.564Z,86.97
2017-07-01T05:57:02.140Z,87.64
2017-07-01T05:59:38.974Z,87.64
2017-07-01T06:02:08.108Z,87.05
2017-07-01T06:04:37.123Z,87.13
2017-07-01T06:07:04.694Z,87.60
2017-07-01T06:09:53.971Z,87.43
2017-07-01T06:12:31.242Z,87.00
2017-07-01T06:15:01.539Z,87.27
2017-07-01T06:17:35.763Z,87.39
2017-07-01T06:20:03.266Z,86.87
2017-07-01T06:22:48.448Z,87.72
2017-07-01T06:25:15.983Z,87.58
2017-07-01T06:27:54.278Z,87.17
2017-07-01T06:30:34.527Z,87.49
2017-07-01T06:33:03.621Z,87.27
2017-07-01T06:35:32.391Z,86.77
2017-07-01T06:38:31.398Z,86.82
2017-07-01T06:41:07.521Z,87.48
2017-07-01T06:43:35.228Z,87.87
2017-07-01T06:46:21.167Z,86.79
2017-07-01T06:48:48.850Z,87.59
2017-07-01T06:51:16.358Z,87.85
2017-07-01T06:53:54.732Z,88.09
2017-07-01T06:56:22.230Z,87.91
2017-07-01T06:58:49.758Z,88.15
2017-07-01T07:01:17.297Z,87.99
2017-07-01T07:03:44.807Z,88.42
2017-07-01T07:06:12.363Z,87.94
2017-07-01T07:08:39.867Z,88.22
2017-07-01T07:11:07.431Z,89.26
2017-07-01T07:13:34.938Z,89.97
2017-07-01T07:16:02.591Z,88.89
2017-07-01T07:18:30.115Z,89.20
2017-07-01T07:20:57.630Z,89.61
2017-07-01T07:23:25.190Z,89.41
2017-07-01T07:25:52.778Z,90.08
2017-07-01T07:28:20.342Z,90.89
2017-07-01T07:30:47.847Z,92.27
2017-07-01T07:33:15.873Z,93.66
2017-07-01T07:35:43.408Z,93.74
2017-07-01T07:38:10.955Z,94.14
2017-07-01T07:40:38.542Z,93.90
2017-07-01T07:43:06.071Z,94.50
2017-07-01T07:45:33.645Z,95.06
2017-07-01T07:48:01.268Z,94.65
2017-07-01T07:50:28.973Z,93.88
2017-07-01T07:52:56.491Z,93.87
2017-07-01T07:55:24.003Z,92.03
2017-07-01T07:57:51.580Z,92.80
2017-07-01T08:00:19.116Z,92.59
2017-07-01T08:02:46.664Z,92.27
2017-07-01T08:05:14.191Z,92.88
2017-07-01T08:07:41.900Z,92.93
2017-07-01T08:10:09.444Z,92.62
2017-07-01T08:12:36.962Z,92.96
2017-07-01T08:15:04.540Z,93.23
2017-07-01T08:17:32.063Z,92.78
2017-07-01T08:19:59.623Z,92.11
2017-07-01T08:22:27.135Z,92.25
2017-07-01T08:24:54.724Z,91.39
2017-07-01T08:27:22.274Z,91.44
2017-07-01T08:29:49.923Z,91.49
2017-07-01T08:34:56.348Z,89.74
2017-07-01T08:37:24.065Z,89.75
2017-07-01T08:39:51.585Z,90.32
2017-07-01T08:42:19.164Z,90.61
2017-07-01T08:44:46.726Z,90.17
2017-07-01T08:47:14.310Z,89.88
2017-07-01T08:49:41.835Z,89.04
2017-07-01T08:52:09.382Z,89.69
2017-07-01T08:54:36.928Z,89.78
2017-07-01T08:57:04.475Z,89.55
2017-07-01T08:59:32.108Z,87.96
2017-07-01T09:01:59.668Z,88.62
2017-07-01T09:04:27.196Z,88.44
2017-07-01T09:06:54.851Z,87.09
2017-07-01T09:09:22.439Z,87.50
2017-07-01T09:11:49.974Z,88.31
2017-07-01T09:14:17.536Z,88.11
2017-07-01T09:16:45.107Z,87.75
2017-07-01T09:19:12.678Z,88.47
2017-07-01T09:21:40.195Z,88.66
2017-07-01T09:24:07.859Z,88.05
2017-07-01T09:26:35.410Z,88.16
2017-07-01T09:29:02.946Z,88.96
2017-07-01T09:31:30.555Z,89.01
2017-07-01T09:33:58.730Z,88.80
2017-07-01T09:36:26.287Z,88.74
2017-07-01T09:38:53.816Z,89.53
2017-07-01T09:41:21.687Z,88.99
2017-07-01T09:43:49.271Z,88.90
2017-07-01T09:46:16.828Z,88.27
2017-07-01T09:48:44.418Z,88.53
2017-07-01T09:51:11.951Z,88.53
2017-07-01T09:53:39.526Z,88.53
2017-07-01T09:56:07.044Z,88.05
2017-07-01T09:58:35.003Z,88.60
2017-07-01T10:01:02.538Z,88.90
2017-07-01T10:03:30.111Z,89.27
2017-07-01T10:05:57.668Z,89.88
2017-07-01T10:08:25.219Z,91.14
2017-07-01T10:10:52.777Z,91.20
2017-07-01T10:13:20.294Z,90.54
2017-07-01T10:15:47.859Z,91.29
2017-07-01T10:18:15.377Z,90.46
2017-07-01T10:20:43.214Z,91.33
2017-07-01T10:23:12.004Z,91.29
2017-07-01T10:25:39.559Z,92.80
2017-07-01T10:28:07.144Z,92.16
2017-07-01T10:30:34.667Z,92.45
2017-07-01T10:33:02.220Z,93.22
2017-07-01T10:35:29.753Z,92.40
2017-07-01T10:37:57.676Z,92.59
2017-07-01T10:40:25.187Z,92.94
2017-07-01T10:42:52.698Z,92.51
2017-07-01T10:45:20.287Z,91.95
2017-07-01T10:47:47.821Z,92.14
2017-07-01T10:50:15.376Z,92.33
2017-07-01T10:52:42.892Z,92.36
2017-07-01T10:55:10.419Z,92.41
2017-07-01T10:57:37.978Z,92.86
2017-07-01T11:00:05.520Z,92.82
2017-07-01T11:02:33.262Z,92.00
2017-07-01T11:05:00.794Z,92.78
2017-07-01T11:07:28.335Z,92.64
2017-07-01T11:09:55.894Z,91.91
2017-07-01T11:12:23.434Z,91.90
2017-07-01T11:14:51.156Z,92.23
2017-07-01T11:17:18.671Z,92.05
2017-07-01T11:19:46.198Z,92.46
2017-07-01T11:22:13.747Z,91.73
2017-07-01T11:24:41.297Z,92.31
2017-07-01T11:27:08.845Z,92.09
2017-07-01T11:29:36.382Z,92.07
2017-07-01T11:32:04.165Z,92.02
2017-07-01T11:34:31.683Z,91.26
2017-07-01T11:36:59.227Z,91.89
2017-07-01T11:39:26.793Z,92.25
2017-07-01T11:41:54.521Z,92.20
2017-07-01T11:44:22.083Z,91.96
2017-07-01T11:46:49.648Z,92.28
2017-07-01T11:49:17.335Z,91.10
2017-07-01T11:51:44.880Z,90.45
2017-07-01T11:54:12.535Z,90.78
2017-07-01T11:56:40.071Z,90.94
2017-07-01T11:59:07.739Z,90.77
2017-07-01T12:01:35.275Z,90.85
2017-07-01T12:04:02.816Z,90.84
2017-07-01T12:06:30.442Z,90.26
2017-07-01T12:08:57.980Z,90.24
2017-07-01T12:11:25.537Z,90.06
2017-07-01T12:13:53.058Z,90.08
2017-07-01T12:16:20.623Z,89.88
2017-07-01T12:18:49.107Z,90.14
2017-07-01T12:21:16.656Z,90.17
2017-07-01T12:23:44.189Z,89.74
2017-07-01T12:26:11.754Z,89.07
2017-07-01T12:28:39.296Z,88.98
2017-07-01T12:31:07.028Z,88.21
2017-07-01T12:33:34.572Z,88.51
2017-07-01T12:36:02.087Z,88.81
2017-07-01T12:38:29.712Z,87.91
2017-07-01T12:40:57.223Z,87.96
2017-07-01T12:43:24.851Z,87.90
2017-07-01T12:45:52.385Z,88.37
2017-07-01T12:48:19.967Z,88.33
2017-07-01T12:50:47.476Z,88.73
2017-07-01T12:53:14.995Z,88.18
2017-07-01T12:55:42.554Z,88.53
2017-07-01T12:58:10.078Z,88.27
2017-07-01T13:00:37.755Z,87.81
2017-07-01T13:03:05.272Z,87.69
2017-07-01T13:05:32.875Z,87.90
2017-07-01T13:08:00.452Z,88.20
2017-07-01T13:10:27.995Z,88.19
2017-07-01T13:12:55.561Z,88.21
2017-07-01T13:15:23.083Z,88.20
2017-07-01T13:17:50.771Z,89.05
2017-07-01T13:20:18.274Z,88.71
2017-07-01T13:22:45.787Z,89.02
2017-07-01T13:25:13.363Z,89.17
2017-07-01T13:27:40.890Z,89.03
2017-07-01T13:30:08.480Z,89.13
2017-07-01T13:32:36.043Z,88.87
2017-07-01T13:35:03.599Z,89.25
2017-07-01T13:37:31.128Z,89.52
2017-07-01T13:39:58.707Z,89.52
2017-07-01T13:42:26.235Z,89.55
2017-07-01T13:44:53.937Z,89.95
2017-07-01T13:47:21.446Z,88.98
2017-07-01T13:49:48.982Z,88.77
2017-07-01T13:52:16.567Z,89.43
2017-07-01T13:54:44.173Z,89.16
2017-07-01T13:57:11.741Z,88.94
2017-07-01T13:59:39.265Z,89.45
2017-07-01T14:02:06.995Z,89.76
2017-07-01T14:04:34.532Z,89.67
2017-07-01T14:07:02.134Z,89.57
2017-07-01T14:09:29.696Z,90.05
2017-07-01T14:11:57.220Z,89.80
2017-07-01T14:14:24.832Z,90.15
2017-07-01T14:16:52.382Z,89.93
2017-07-01T14:19:19.943Z,89.89
2017-07-01T14:21:47.506Z,90.29
2017-07-01T14:24:15.079Z,90.76
2017-07-01T14:26:42.659Z,91.15
2017-07-01T14:29:10.490Z,92.68
2017-07-01T14:31:38.047Z,92.75
2017-07-01T14:34:05.664Z,92.50
2017-07-01T14:36:33.248Z,92.35
2017-07-01T14:39:00.756Z,91.95
2017-07-01T14:41:28.320Z,92.16
2017-07-01T14:43:55.843Z,92.21
2017-07-01T14:46:23.408Z,91.95
2017-07-01T14:48:50.947Z,91.59
2017-07-01T14:51:18.519Z,91.20
2017-07-01T14:53:46.055Z,90.71
2017-07-01T14:56:13.671Z,91.16
2017-07-01T14:58:41.299Z,90.56
2017-07-01T15:01:08.878Z,90.66
2017-07-01T15:03:36.410Z,90.68
2017-07-01T15:06:03.984Z,90.67
2017-07-01T15:08:31.571Z,90.63
2017-07-01T15:10:59.299Z,90.55
2017-07-01T15:13:26.833Z,90.00
2017-07-01T15:15:54.367Z,90.48
2017-07-01T15:18:21.940Z,90.71
2017-07-01T15:20:49.471Z,90.89
2017-07-01T15:23:17.046Z,90.67
2017-07-01T15:25:44.578Z,89.50
2017-07-01T15:28:12.135Z,90.00
2017-07-01T15:30:39.661Z,90.21
2017-07-01T15:33:07.275Z,90.23
2017-07-01T15:35:34.791Z,90.79
2017-07-01T15:38:02.348Z,90.18
2017-07-01T15:40:29.875Z,90.78
2017-07-01T15:42:57.437Z,91.21
2017-07-01T15:45:24.951Z,91.43
2017-07-01T15:47:52.660Z,91.68
2017-07-01T15:50:20.196Z,91.81
2017-07-01T15:52:47.714Z,91.47
2017-07-01T15:55:15.263Z,91.91
2017-07-01T15:57:42.810Z,92.68
2017-07-01T16:00:10.363Z,93.42
2017-07-01T16:02:37.879Z,94.23
2017-07-01T16:05:05.435Z,94.77
2017-07-01T16:07:32.958Z,94.67
2017-07-01T16:10:01.044Z,94.94
2017-07-01T16:12:28.571Z,95.20
2017-07-01T16:14:56.102Z,95.17
2017-07-01T16:17:23.655Z,94.88
2017-07-01T16:19:51.185Z,95.41
2017-07-01T16:22:18.800Z,95.62
2017-07-01T16:24:46.322Z,95.61
2017-07-01T16:27:13.879Z,95.54
2017-07-01T16:29:41.414Z,95.60
2017-07-01T16:32:09.112Z,95.44
2017-07-01T16:34:36.651Z,95.65
2017-07-01T16:37:04.203Z,95.27
2017-07-01T16:39:31.867Z,95.11
2017-07-01T16:41:59.389Z,95.24
2017-07-01T16:44:26.959Z,95.57
2017-07-01T16:46:54.500Z,95.79
2017-07-01T16:49:22.054Z,95.86
2017-07-01T16:51:49.579Z,96.17
2017-07-01T16:54:17.678Z,96.26
2017-07-01T16:56:45.195Z,96.09
2017-07-01T16:59:12.714Z,95.78
2017-07-01T17:01:40.283Z,95.70
2017-07-01T17:04:07.812Z,96.06
2017-07-01T17:06:35.364Z,96.25
2017-07-01T17:09:02.867Z,96.46
2017-07-01T17:11:30.439Z,96.89
2017-07-01T17:13:58.451Z,96.61
2017-07-01T17:16:26.002Z,96.54
2017-07-01T17:18:53.502Z,96.63
2017-07-01T17:21:21.025Z,96.73
2017-07-01T17:23:48.582Z,96.37
2017-07-01T17:26:16.107Z,96.66
2017-07-01T17:28:43.679Z,96.47
2017-07-01T17:31:11.214Z,96.21
2017-07-01T17:33:38.888Z,96.16
2017-07-01T17:36:06.408Z,95.95
2017-07-01T17:38:33.930Z,95.74
2017-07-01T17:41:01.491Z,95.34
2017-07-01T17:43:29.011Z,94.45
2017-07-01T17:45:56.592Z,94.44
2017-07-01T17:48:24.121Z,94.48
2017-07-01T17:50:51.683Z,94.62
2017-07-01T17:53:19.195Z,94.92
2017-07-01T17:55:46.742Z,95.43
2017-07-01T17:58:14.264Z,95.69
2017-07-01T18:00:42.115Z,95.90
2017-07-01T18:03:09.659Z,95.92
2017-07-01T18:05:37.186Z,95.79
2017-07-01T18:08:04.756Z,95.64
2017-07-01T18:10:32.327Z,95.74
2017-07-01T18:12:59.912Z,95.46
2017-07-01T18:15:27.448Z,95.46
2017-07-01T18:17:55.033Z,95.61
2017-07-01T18:20:22.564Z,95.64
2017-07-01T18:22:50.140Z,95.46
2017-07-01T18:25:17.672Z,95.16
2017-07-01T18:27:45.330Z,95.25
2017-07-01T18:30:12.869Z,95.84
2017-07-01T18:32:40.390Z,95.54
2017-07-01T18:35:07.963Z,95.45
2017-07-01T18:37:35.491Z,95.13
2017-07-01T18:40:03.063Z,94.24
2017-07-01T18:42:30.618Z,93.17
2017-07-01T18:44:58.215Z,93.06
2017-07-01T18:47:25.795Z,93.19
2017-07-01T18:49:53.540Z,92.75
2017-07-01T18:52:21.066Z,92.49
2017-07-01T18:54:48.610Z,92.85
2017-07-01T18:57:16.187Z,92.52
2017-07-01T18:59:43.726Z,92.68
2017-07-01T19:02:11.339Z,93.33
2017-07-01T19:04:38.867Z,93.34
2017-07-01T19:07:06.531Z,93.29
2017-07-01T19:09:34.062Z,93.57
2017-07-01T19:12:01.579Z,93.75
2017-07-01T19:14:29.156Z,93.80
2017-07-01T19:16:56.709Z,93.83
2017-07-01T19:19:24.367Z,93.54
2017-07-01T19:21:51.883Z,93.70
2017-07-01T19:24:19.540Z,94.10
2017-07-01T19:26:47.056Z,94.28
2017-07-01T19:29:14.591Z,93.57
2017-07-01T19:31:42.155Z,94.00
2017-07-01T19:34:09.737Z,94.00
2017-07-01T19:36:37.311Z,94.05
2017-07-01T19:39:04.830Z,94.13
2017-07-01T19:41:32.484Z,94.21
2017-07-01T19:44:00.242Z,94.12
2017-07-01T19:46:27.759Z,94.10
2017-07-01T19:48:55.346Z,94.00
2017-07-01T19:51:22.884Z,93.70
2017-07-01T19:53:50.585Z,93.42
2017-07-01T19:56:18.107Z,93.81
2017-07-01T19:58:45.643Z,94.08
2017-07-01T20:01:13.219Z,93.85
2017-07-01T20:03:40.739Z,93.97
2017-07-01T20:06:08.316Z,94.15
2017-07-01T20:08:35.855Z,93.66
2017-07-01T20:11:03.438Z,93.72
2017-07-01T20:13:30.959Z,93.58
2017-07-01T20:15:58.702Z,94.02
2017-07-01T20:18:26.259Z,93.62
2017-07-01T20:20:53.926Z,93.58
2017-07-01T20:23:21.570Z,93.24
2017-07-01T20:25:49.132Z,93.29
2017-07-01T20:28:16.716Z,94.43
2017-07-01T20:30:44.326Z,93.71
2017-07-01T20:33:12.311Z,94.11
2017-07-01T20:35:39.818Z,93.92
2017-07-01T20:38:07.344Z,94.15
2017-07-01T20:40:34.899Z,94.06
2017-07-01T20:43:02.419Z,93.87
2017-07-01T20:45:30.007Z,94.20
2017-07-01T20:47:57.542Z,94.11
2017-07-01T20:50:25.127Z,94.08
2017-07-01T20:52:52.661Z,94.09
2017-07-01T20:55:20.338Z,93.74
2017-07-01T20:57:47.859Z,93.59
2017-07-01T21:00:15.452Z,93.19
2017-07-01T21:02:43.035Z,93.55
2017-07-01T21:05:10.645Z,93.52
2017-07-01T21:07:38.233Z,93.34
2017-07-01T21:10:05.743Z,93.69
2017-07-01T21:12:33.352Z,93.44
2017-07-01T21:15:00.971Z,93.63
2017-07-01T21:17:28.668Z,93.53
2017-07-01T21:19:56.225Z,93.03
2017-07-01T21:22:23.784Z,93.31
2017-07-01T21:24:51.365Z,93.43
2017-07-01T21:27:18.883Z,93.23
2017-07-01T21:29:46.476Z,93.26
2017-07-01T21:32:14.070Z,92.33
2017-07-01T21:34:41.748Z,92.10
2017-07-01T21:37:09.291Z,92.38
2017-07-01T21:39:36.852Z,92.47
2017-07-01T21:42:04.400Z,92.13
2017-07-01T21:44:32.165Z,91.46
2017-07-01T21:46:59.723Z,91.38
2017-07-01T21:49:27.292Z,91.72
2017-07-01T21:51:54.858Z,92.11
2017-07-01T21:54:22.404Z,92.14
2017-07-01T21:56:50.026Z,92.00
2017-07-01T21:59:17.621Z,92.08
2017-07-01T22:01:45.488Z,91.92
2017-07-01T22:04:13.012Z,91.86
2017-07-01T22:06:40.643Z,92.29
2017-07-01T22:09:08.197Z,92.25
2017-07-01T22:11:35.717Z,91.97
2017-07-01T22:14:03.282Z,92.03
2017-07-01T22:16:30.822Z,91.71
2017-07-01T22:18:58.528Z,91.55
2017-07-01T22:21:26.070Z,91.75
2017-07-01T22:23:53.592Z,91.19
2017-07-01T22:26:21.207Z,91.01
2017-07-01T22:28:48.722Z,91.46
2017-07-01T22:31:16.302Z,90.93
2017-07-01T22:33:43.834Z,90.15
2017-07-01T22:36:11.399Z,89.95
2017-07-01T22:38:38.958Z,90.40
2017-07-01T22:41:06.528Z,90.05
2017-07-01T22:43:34.151Z,89.77
2017-07-01T22:46:01.675Z,89.29
2017-07-01T22:48:29.251Z,88.58
2017-07-01T22:50:56.851Z,88.81
2017-07-01T22:53:24.461Z,88.07
2017-07-01T22:55:52.039Z,87.80
2017-07-01T22:58:19.929Z,88.13
2017-07-01T23:00:47.454Z,88.06
2017-07-01T23:03:14.965Z,87.70
2017-07-01T23:05:42.519Z,87.89
2017-07-01T23:08:10.040Z,87.81
2017-07-01T23:10:37.675Z,87.86
2017-07-01T23:13:05.192Z,87.94
2017-07-01T23:15:32.743Z,87.82
2017-07-01T23:18:00.270Z,88.38
2017-07-01T23:20:27.823Z,88.58
2017-07-01T23:22:55.347Z,88.94
2017-07-01T23:25:23.212Z,89.19
2017-07-01T23:27:50.791Z,88.83
2017-07-01T23:30:18.306Z,88.99
2017-07-01T23:32:45.859Z,89.07
2017-07-01T23:35:13.411Z,89.08
2017-07-01T23:37:41.008Z,89.04
2017-07-01T23:40:08.533Z,89.41
2017-07-01T23:42:36.171Z,89.29
2017-07-01T23:45:03.731Z,89.40
2017-07-01T23:47:31.387Z,89.16
2017-07-01T23:49:58.968Z,89.13
2017-07-01T23:52:26.507Z,89.15
2017-07-01T23:54:54.058Z,88.79
2017-07-01T23:57:21.603Z,88.72
2017-07-01T23:59:49.177Z,88.73
